QTR429 ESSA-OTHH
Flight info
| Callsign | QTR429 |
|---|---|
| Flight time | N/A |
| Altitude | 37000 |
| Route | BABAP P156 NEKLA DCT RASEL P156 MIRMA DCT ORZIK DCT BOKSU/N0473F360 DCT BULEP DCT XESNA DCT GERVI M857 VAXUR DCT KEKED/N0470F370 DCT MEGIK DCT NIGEV DCT DINEN/N0462F390 DCT ADORU UG80 EKI UN739 TUMER UT38 VESAR DCT NIKAS R785 RASLI P559 TRF R23 NEVOL N318 TAMRO T503 KSA M321 RESAL T533 RAPMA/N0481F290 Y214 ASPUS Y432 LADBO T142 LAEEB |
| Aircraft | A343/H-SDE2E3FGHIJ4J5M1RWXY/LB1D1 |
Departure
| Time | N/A |
|---|---|
| Airport | Stockholm-Arlanda Airport (ESSA) |
Arrival
| Time | 2026-05-07 20:30 |
|---|---|
| Airport | Hamad International Airport (OTHH) |
| Time | Latitude | Longitude | Altitude | Speed | Heading |
|---|---|---|---|---|---|
| 2026-05-07 20:04 | 24.26719 | 49.53048 | 38879 ft | 523 kts | 78° |
| 2026-05-07 20:05 | 24.28400 | 49.60800 | 38875 ft | 523 kts | 79° |
| 2026-05-07 20:05 | 24.30077 | 49.68550 | 38872 ft | 523 kts | 79° |
| 2026-05-07 20:06 | 24.31742 | 49.76260 | 38874 ft | 523 kts | 79° |
| 2026-05-07 20:06 | 24.33415 | 49.84027 | 38873 ft | 523 kts | 79° |
| 2026-05-07 20:07 | 24.35082 | 49.91789 | 38870 ft | 522 kts | 79° |
| 2026-05-07 20:07 | 24.36745 | 49.99552 | 38869 ft | 522 kts | 79° |
| 2026-05-07 20:08 | 24.37565 | 50.03388 | 38739 ft | 522 kts | 79° |
| 2026-05-07 20:08 | 24.38391 | 50.07255 | 38504 ft | 521 kts | 79° |
| 2026-05-07 20:08 | 24.39228 | 50.11179 | 38230 ft | 521 kts | 79° |
| 2026-05-07 20:08 | 24.40044 | 50.15010 | 37975 ft | 522 kts | 79° |
| 2026-05-07 20:09 | 24.40869 | 50.18889 | 37713 ft | 522 kts | 79° |
| 2026-05-07 20:09 | 24.41694 | 50.22771 | 37450 ft | 523 kts | 79° |
| 2026-05-07 20:09 | 24.42519 | 50.26658 | 37194 ft | 523 kts | 79° |
| 2026-05-07 20:10 | 24.44168 | 50.34448 | 36682 ft | 524 kts | 79° |
| 2026-05-07 20:10 | 24.44991 | 50.38344 | 36428 ft | 524 kts | 79° |
| 2026-05-07 20:10 | 24.45814 | 50.42244 | 36055 ft | 523 kts | 79° |
| 2026-05-07 20:10 | 24.46634 | 50.46131 | 35415 ft | 524 kts | 79° |
| 2026-05-07 20:11 | 24.47447 | 50.49994 | 34753 ft | 526 kts | 79° |
| 2026-05-07 20:11 | 24.48272 | 50.53918 | 34071 ft | 528 kts | 78° |
| 2026-05-07 20:11 | 24.49099 | 50.57856 | 33333 ft | 530 kts | 78° |
| 2026-05-07 20:11 | 24.49928 | 50.61808 | 32595 ft | 531 kts | 78° |
| 2026-05-07 20:12 | 24.50753 | 50.65749 | 31857 ft | 531 kts | 78° |
| 2026-05-07 20:12 | 24.51581 | 50.69710 | 31117 ft | 532 kts | 78° |
| 2026-05-07 20:12 | 24.52409 | 50.73681 | 30393 ft | 532 kts | 78° |
| 2026-05-07 20:12 | 24.53232 | 50.77628 | 29811 ft | 526 kts | 78° |
| 2026-05-07 20:13 | 24.54042 | 50.81520 | 29009 ft | 520 kts | 78° |
| 2026-05-07 20:13 | 24.54844 | 50.85375 | 28267 ft | 513 kts | 78° |
| 2026-05-07 20:13 | 24.55620 | 50.89111 | 27429 ft | 501 kts | 78° |
| 2026-05-07 20:13 | 24.56386 | 50.92800 | 26283 ft | 490 kts | 78° |
| 2026-05-07 20:14 | 24.57133 | 50.96408 | 25195 ft | 478 kts | 78° |
| 2026-05-07 20:14 | 24.57860 | 50.99928 | 24161 ft | 467 kts | 78° |
| 2026-05-07 20:14 | 24.58571 | 51.03368 | 23099 ft | 456 kts | 78° |
| 2026-05-07 20:14 | 24.59264 | 51.06732 | 21886 ft | 446 kts | 78° |
| 2026-05-07 20:15 | 24.59942 | 51.10026 | 20706 ft | 437 kts | 78° |
| 2026-05-07 20:15 | 24.60606 | 51.13253 | 19585 ft | 428 kts | 78° |
| 2026-05-07 20:15 | 24.61254 | 51.16407 | 18507 ft | 419 kts | 79° |
| 2026-05-07 20:15 | 24.61891 | 51.19508 | 17361 ft | 411 kts | 78° |
| 2026-05-07 20:16 | 24.62511 | 51.22533 | 16223 ft | 401 kts | 78° |
| 2026-05-07 20:16 | 24.63115 | 51.25491 | 15180 ft | 391 kts | 78° |
| 2026-05-07 20:16 | 24.63701 | 51.28361 | 14132 ft | 381 kts | 77° |
| 2026-05-07 20:16 | 24.64276 | 51.31178 | 13137 ft | 373 kts | 77° |
| 2026-05-07 20:17 | 24.64832 | 51.33902 | 12484 ft | 355 kts | 77° |
| 2026-05-07 20:17 | 24.65357 | 51.36471 | 12032 ft | 334 kts | 77° |
| 2026-05-07 20:17 | 24.65850 | 51.38888 | 11646 ft | 314 kts | 78° |
| 2026-05-07 20:17 | 24.66313 | 51.41168 | 11281 ft | 297 kts | 78° |
| 2026-05-07 20:18 | 24.66752 | 51.43331 | 10917 ft | 283 kts | 78° |
| 2026-05-07 20:18 | 24.67243 | 51.45384 | 10612 ft | 273 kts | 70° |
| 2026-05-07 20:18 | 24.68110 | 51.47202 | 10471 ft | 267 kts | 55° |
| 2026-05-07 20:18 | 24.69429 | 51.48611 | 10291 ft | 264 kts | 35° |
| 2026-05-07 20:19 | 24.71027 | 51.49579 | 9846 ft | 262 kts | 27° |
| 2026-05-07 20:19 | 24.72663 | 51.50401 | 9296 ft | 262 kts | 26° |
| 2026-05-07 20:19 | 24.74326 | 51.51206 | 8772 ft | 260 kts | 26° |
| 2026-05-07 20:19 | 24.75977 | 51.52002 | 8257 ft | 258 kts | 25° |
| 2026-05-07 20:20 | 24.77619 | 51.52794 | 7740 ft | 257 kts | 25° |
| 2026-05-07 20:20 | 24.79250 | 51.53581 | 7259 ft | 255 kts | 26° |
| 2026-05-07 20:20 | 24.80871 | 51.54364 | 6826 ft | 255 kts | 26° |
| 2026-05-07 20:20 | 24.82492 | 51.55147 | 6583 ft | 253 kts | 25° |
| 2026-05-07 20:21 | 24.84097 | 51.55922 | 6359 ft | 251 kts | 25° |
| 2026-05-07 20:21 | 24.85696 | 51.56695 | 6092 ft | 250 kts | 26° |
| 2026-05-07 20:21 | 24.87290 | 51.57466 | 5835 ft | 249 kts | 25° |
| 2026-05-07 20:21 | 24.88844 | 51.58219 | 5639 ft | 246 kts | 25° |
| 2026-05-07 20:22 | 24.90408 | 51.58977 | 5380 ft | 245 kts | 24° |
| 2026-05-07 20:22 | 24.91963 | 51.59730 | 5154 ft | 244 kts | 25° |
| 2026-05-07 20:22 | 24.93519 | 51.60485 | 4945 ft | 245 kts | 24° |
| 2026-05-07 20:22 | 24.95077 | 51.61241 | 4743 ft | 244 kts | 24° |
| 2026-05-07 20:23 | 24.96630 | 51.61993 | 4531 ft | 242 kts | 23° |
| 2026-05-07 20:23 | 24.98166 | 51.62738 | 4321 ft | 240 kts | 23° |
| 2026-05-07 20:23 | 24.99690 | 51.63478 | 4112 ft | 238 kts | 23° |
| 2026-05-07 20:23 | 25.01207 | 51.64213 | 3930 ft | 238 kts | 22° |
| 2026-05-07 20:24 | 25.02725 | 51.64950 | 3739 ft | 237 kts | 22° |
| 2026-05-07 20:24 | 25.04214 | 51.65674 | 3552 ft | 232 kts | 22° |
| 2026-05-07 20:24 | 25.05655 | 51.66375 | 3422 ft | 225 kts | 21° |
| 2026-05-07 20:24 | 25.07055 | 51.67056 | 3367 ft | 216 kts | 22° |
| 2026-05-07 20:25 | 25.08441 | 51.67523 | 3300 ft | 202 kts | 0° |
| 2026-05-07 20:25 | 25.09776 | 51.67396 | 3303 ft | 186 kts | 347° |
| 2026-05-07 20:25 | 25.10986 | 51.66958 | 3074 ft | 182 kts | 338° |
| 2026-05-07 20:25 | 25.12159 | 51.66440 | 2766 ft | 182 kts | 338° |
| 2026-05-07 20:26 | 25.13337 | 51.65922 | 2466 ft | 181 kts | 338° |
| 2026-05-07 20:26 | 25.14470 | 51.65424 | 2237 ft | 169 kts | 338° |
| 2026-05-07 20:26 | 25.15517 | 51.64960 | 2034 ft | 155 kts | 338° |
| 2026-05-07 20:26 | 25.16456 | 51.64540 | 1863 ft | 140 kts | 338° |
| 2026-05-07 20:27 | 25.17336 | 51.64153 | 1673 ft | 133 kts | 338° |
| 2026-05-07 20:27 | 25.18197 | 51.63769 | 1522 ft | 135 kts | 339° |
| 2026-05-07 20:27 | 25.19080 | 51.63398 | 1367 ft | 136 kts | 339° |
| 2026-05-07 20:27 | 25.19956 | 51.62985 | 1160 ft | 134 kts | 338° |
| 2026-05-07 20:28 | 25.20822 | 51.62614 | 980 ft | 133 kts | 337° |
| 2026-05-07 20:28 | 25.21681 | 51.62229 | 826 ft | 133 kts | 338° |
| 2026-05-07 20:28 | 25.22544 | 51.61864 | 672 ft | 133 kts | 340° |
| 2026-05-07 20:28 | 25.23400 | 51.61476 | 501 ft | 132 kts | 341° |
| 2026-05-07 20:29 | 25.24253 | 51.61109 | 323 ft | 131 kts | 340° |
| 2026-05-07 20:29 | 25.25094 | 51.60735 | 166 ft | 131 kts | 337° |
| 2026-05-07 20:29 | 25.25930 | 51.60366 | 39 ft | 128 kts | 339° |
| 2026-05-07 20:29 | 25.26622 | 51.60062 | 29 ft | 81 kts | 338° |
| 2026-05-07 20:30 | 25.27075 | 51.59863 | 30 ft | 61 kts | 339° |
| 2026-05-07 20:30 | 25.27426 | 51.59710 | 30 ft | 46 kts | 338° |
| 2026-05-07 20:30 | 25.27692 | 51.59591 | 28 ft | 37 kts | 338° |
| 2026-05-07 20:30 | 25.27886 | 51.59514 | 28 ft | 27 kts | 348° |
| 2026-05-07 20:31 | 25.28045 | 51.59517 | 30 ft | 17 kts | 8° |
| 2026-05-07 20:31 | 25.28114 | 51.59565 | 32 ft | 11 kts | 79° |
| 2026-05-07 20:31 | 25.28076 | 51.59622 | 33 ft | 10 kts | 146° |
| 2026-05-07 20:31 | 25.28005 | 51.59660 | 33 ft | 14 kts | 157° |
| 2026-05-07 20:32 | 25.27906 | 51.59705 | 33 ft | 17 kts | 158° |
| 2026-05-07 20:32 | 25.27795 | 51.59755 | 33 ft | 18 kts | 158° |
| 2026-05-07 20:32 | 25.27674 | 51.59806 | 33 ft | 19 kts | 159° |
| 2026-05-07 20:32 | 25.27545 | 51.59863 | 33 ft | 20 kts | 157° |
| 2026-05-07 20:33 | 25.27409 | 51.59922 | 33 ft | 22 kts | 159° |
| 2026-05-07 20:33 | 25.27264 | 51.59986 | 33 ft | 23 kts | 158° |
| 2026-05-07 20:33 | 25.27112 | 51.60054 | 33 ft | 24 kts | 158° |
| 2026-05-07 20:33 | 25.26951 | 51.60124 | 32 ft | 25 kts | 159° |
| 2026-05-07 20:34 | 25.26795 | 51.60192 | 32 ft | 20 kts | 158° |
| 2026-05-07 20:34 | 25.26660 | 51.60253 | 32 ft | 21 kts | 158° |
| 2026-05-07 20:34 | 25.26526 | 51.60312 | 33 ft | 22 kts | 158° |
| 2026-05-07 20:34 | 25.26380 | 51.60378 | 33 ft | 23 kts | 159° |
| 2026-05-07 20:35 | 25.26229 | 51.60442 | 34 ft | 22 kts | 159° |
| 2026-05-07 20:35 | 25.26117 | 51.60491 | 33 ft | 15 kts | 158° |
| 2026-05-07 20:35 | 25.26054 | 51.60540 | 33 ft | 9 kts | 105° |
| 2026-05-07 20:35 | 25.26067 | 51.60613 | 34 ft | 11 kts | 70° |
| 2026-05-07 20:36 | 25.26098 | 51.60697 | 34 ft | 13 kts | 68° |
| 2026-05-07 20:36 | 25.26131 | 51.60789 | 34 ft | 14 kts | 68° |
| 2026-05-07 20:36 | 25.26167 | 51.60887 | 34 ft | 9 kts | 68° |
| 2026-05-07 20:36 | 25.26153 | 51.60945 | 34 ft | 8 kts | 139° |
| 2026-05-07 20:37 | 25.26106 | 51.60970 | 34 ft | 5 kts | 157° |
| 2026-05-07 20:37 | 25.26091 | 51.60977 | 34 ft | 0 kts | 158° |